sensor_id;sensor_type;location;lat;lon;timestamp;pressure;altitude;pressure_sealevel;temperature;humidity
16100;BME280;8154;50.830;12.082;2022-12-07T00:02:10;99264.38;;;23.55;32.17
16100;BME280;8154;50.830;12.082;2022-12-07T00:04:54;99258.81;;;23.50;32.23
16100;BME280;8154;50.830;12.082;2022-12-07T00:07:38;99247.13;;;23.51;32.13
16100;BME280;8154;50.830;12.082;2022-12-07T00:10:22;99248.34;;;23.49;32.42
16100;BME280;8154;50.830;12.082;2022-12-07T00:13:06;99235.84;;;23.49;32.45
16100;BME280;8154;50.830;12.082;2022-12-07T00:15:50;99231.72;;;23.53;32.37
16100;BME280;8154;50.830;12.082;2022-12-07T00:18:34;99235.44;;;23.52;32.37
16100;BME280;8154;50.830;12.082;2022-12-07T00:21:37;99229.91;;;23.54;32.27
16100;BME280;8154;50.830;12.082;2022-12-07T00:24:21;99231.56;;;23.61;31.98
16100;BME280;8154;50.830;12.082;2022-12-07T00:27:05;99222.31;;;23.57;32.14
16100;BME280;8154;50.830;12.082;2022-12-07T00:29:49;99223.13;;;23.58;32.05
16100;BME280;8154;50.830;12.082;2022-12-07T00:32:33;99217.59;;;23.59;32.03
16100;BME280;8154;50.830;12.082;2022-12-07T00:35:17;99215.59;;;23.74;31.82
16100;BME280;8154;50.830;12.082;2022-12-07T00:38:02;99204.69;;;23.69;31.95
16100;BME280;8154;50.830;12.082;2022-12-07T00:40:56;99214.28;;;23.51;32.12
16100;BME280;8154;50.830;12.082;2022-12-07T00:43:42;99206.69;;;23.48;32.24
16100;BME280;8154;50.830;12.082;2022-12-07T00:46:30;99205.88;;;23.54;32.13
16100;BME280;8154;50.830;12.082;2022-12-07T00:49:15;99208.34;;;23.55;32.14
16100;BME280;8154;50.830;12.082;2022-12-07T00:51:59;99206.72;;;23.61;32.03
16100;BME280;8154;50.830;12.082;2022-12-07T00:54:44;99202.41;;;23.60;32.24
16100;BME280;8154;50.830;12.082;2022-12-07T00:57:30;99203.66;;;23.57;32.29
16100;BME280;8154;50.830;12.082;2022-12-07T01:00:15;99198.94;;;23.53;32.31
16100;BME280;8154;50.830;12.082;2022-12-07T01:02:59;99196.66;;;23.50;32.00
16100;BME280;8154;50.830;12.082;2022-12-07T01:05:53;99200.72;;;23.46;32.21
16100;BME280;8154;50.830;12.082;2022-12-07T01:08:38;99194.78;;;23.44;32.48
16100;BME280;8154;50.830;12.082;2022-12-07T01:11:25;99184.53;;;23.47;32.26
16100;BME280;8154;50.830;12.082;2022-12-07T01:14:09;99182.50;;;23.62;32.03
16100;BME280;8154;50.830;12.082;2022-12-07T01:16:54;99180.06;;;23.74;31.78
16100;BME280;8154;50.830;12.082;2022-12-07T01:19:38;99174.91;;;23.66;31.90
16100;BME280;8154;50.830;12.082;2022-12-07T01:22:23;99184.16;;;23.57;32.02
16100;BME280;8154;50.830;12.082;2022-12-07T01:25:08;99178.19;;;23.55;32.14
16100;BME280;8154;50.830;12.082;2022-12-07T01:27:52;99183.31;;;23.56;32.15
16100;BME280;8154;50.830;12.082;2022-12-07T01:30:36;99177.59;;;23.53;32.16
16100;BME280;8154;50.830;12.082;2022-12-07T01:33:20;99172.66;;;23.50;32.08
16100;BME280;8154;50.830;12.082;2022-12-07T01:39:05;99165.22;;;23.45;32.35
16100;BME280;8154;50.830;12.082;2022-12-07T01:41:50;99181.22;;;23.45;32.38
16100;BME280;8154;50.830;12.082;2022-12-07T01:47:58;99181.25;;;23.52;32.09
16100;BME280;8154;50.830;12.082;2022-12-07T01:50:44;99190.28;;;23.51;32.06
16100;BME280;8154;50.830;12.082;2022-12-07T01:53:30;99183.72;;;23.53;32.01
16100;BME280;8154;50.830;12.082;2022-12-07T01:56:19;99181.88;;;23.47;32.40
16100;BME280;8154;50.830;12.082;2022-12-07T01:59:06;99188.25;;;23.53;32.29
16100;BME280;8154;50.830;12.082;2022-12-07T02:01:51;99178.78;;;23.50;32.26
16100;BME280;8154;50.830;12.082;2022-12-07T02:04:35;99170.75;;;23.44;32.23
16100;BME280;8154;50.830;12.082;2022-12-07T02:07:20;99173.84;;;23.41;32.24
16100;BME280;8154;50.830;12.082;2022-12-07T02:10:17;99169.13;;;23.43;32.41
16100;BME280;8154;50.830;12.082;2022-12-07T02:13:04;99164.66;;;23.50;32.31
16100;BME280;8154;50.830;12.082;2022-12-07T02:28:34;99140.66;;;23.50;32.42
16100;BME280;8154;50.830;12.082;2022-12-07T02:31:21;99142.66;;;23.41;32.22
16100;BME280;8154;50.830;12.082;2022-12-07T02:40:21;99138.75;;;23.44;32.24
16100;BME280;8154;50.830;12.082;2022-12-07T02:43:16;99133.03;;;23.47;32.36
16100;BME280;8154;50.830;12.082;2022-12-07T02:46:05;99127.50;;;23.48;32.31
16100;BME280;8154;50.830;12.082;2022-12-07T02:48:51;99128.94;;;23.51;32.36
16100;BME280;8154;50.830;12.082;2022-12-07T02:51:41;99123.81;;;23.49;32.13
16100;BME280;8154;50.830;12.082;2022-12-07T02:54:26;99124.63;;;23.63;32.24
16100;BME280;8154;50.830;12.082;2022-12-07T02:57:27;99125.28;;;23.71;31.84
16100;BME280;8154;50.830;12.082;2022-12-07T03:00:17;99120.75;;;23.59;32.05
16100;BME280;8154;50.830;12.082;2022-12-07T03:03:10;99118.47;;;23.43;32.17
16100;BME280;8154;50.830;12.082;2022-12-07T03:06:20;99111.50;;;23.42;32.33
16100;BME280;8154;50.830;12.082;2022-12-07T03:13:28;99117.63;;;23.42;32.29
16100;BME280;8154;50.830;12.082;2022-12-07T03:18:45;99116.41;;;23.58;32.29
16100;BME280;8154;50.830;12.082;2022-12-07T03:21:38;99111.50;;;23.48;32.30
16100;BME280;8154;50.830;12.082;2022-12-07T03:24:57;99112.91;;;23.44;32.43
16100;BME280;8154;50.830;12.082;2022-12-07T03:27:44;99095.88;;;23.45;32.16
16100;BME280;8154;50.830;12.082;2022-12-07T03:30:49;99092.19;;;23.40;32.30
16100;BME280;8154;50.830;12.082;2022-12-07T03:34:46;99087.06;;;23.38;32.43
16100;BME280;8154;50.830;12.082;2022-12-07T03:37:08;99087.06;;;23.38;32.30
16100;BME280;8154;50.830;12.082;2022-12-07T03:39:58;99090.75;;;23.44;32.13
16100;BME280;8154;50.830;12.082;2022-12-07T03:42:46;99084.22;;;23.46;32.17
16100;BME280;8154;50.830;12.082;2022-12-07T03:45:38;99090.97;;;23.42;32.47
16100;BME280;8154;50.830;12.082;2022-12-07T03:52:16;99079.09;;;23.51;32.34
16100;BME280;8154;50.830;12.082;2022-12-07T03:57:56;99074.75;;;23.44;32.23
16100;BME280;8154;50.830;12.082;2022-12-07T04:00:43;99070.44;;;23.43;32.17
16100;BME280;8154;50.830;12.082;2022-12-07T04:03:27;99073.13;;;23.43;32.45
16100;BME280;8154;50.830;12.082;2022-12-07T04:06:11;99078.44;;;23.36;32.38
16100;BME280;8154;50.830;12.082;2022-12-07T04:08:55;99068.81;;;23.42;32.32
16100;BME280;8154;50.830;12.082;2022-12-07T04:11:40;99062.03;;;23.46;32.37
16100;BME280;8154;50.830;12.082;2022-12-07T04:14:24;99054.47;;;23.49;32.25
16100;BME280;8154;50.830;12.082;2022-12-07T04:17:08;99060.63;;;23.50;32.16
16100;BME280;8154;50.830;12.082;2022-12-07T04:19:52;99064.94;;;23.51;32.11
16100;BME280;8154;50.830;12.082;2022-12-07T04:22:37;99067.59;;;23.51;32.26
16100;BME280;8154;50.830;12.082;2022-12-07T04:25:21;99071.69;;;23.53;32.24
16100;BME280;8154;50.830;12.082;2022-12-07T04:28:05;99065.13;;;23.49;32.27
16100;BME280;8154;50.830;12.082;2022-12-07T04:30:49;99064.94;;;23.51;32.32
16100;BME280;8154;50.830;12.082;2022-12-07T04:33:35;99070.88;;;23.53;32.11
16100;BME280;8154;50.830;12.082;2022-12-07T04:36:20;99066.16;;;23.74;31.83
16100;BME280;8154;50.830;12.082;2022-12-07T04:39:07;99064.72;;;23.59;31.86
16100;BME280;8154;50.830;12.082;2022-12-07T04:41:51;99065.34;;;23.54;32.17
16100;BME280;8154;50.830;12.082;2022-12-07T04:44:35;99054.69;;;23.54;32.35
16100;BME280;8154;50.830;12.082;2022-12-07T04:47:20;99052.84;;;23.48;32.22
16100;BME280;8154;50.830;12.082;2022-12-07T04:50:05;99048.94;;;23.57;32.18
16100;BME280;8154;50.830;12.082;2022-12-07T04:52:49;99047.06;;;23.64;32.08
16100;BME280;8154;50.830;12.082;2022-12-07T04:55:34;99037.63;;;23.55;32.22
16100;BME280;8154;50.830;12.082;2022-12-07T04:58:18;99044.63;;;23.50;32.21
16100;BME280;8154;50.830;12.082;2022-12-07T05:01:02;99045.41;;;23.44;32.19
16100;BME280;8154;50.830;12.082;2022-12-07T05:03:46;99044.00;;;23.41;32.28
16100;BME280;8154;50.830;12.082;2022-12-07T05:06:31;99043.78;;;23.43;32.32
16100;BME280;8154;50.830;12.082;2022-12-07T05:09:15;99046.03;;;23.46;32.53
16100;BME280;8154;50.830;12.082;2022-12-07T05:11:59;99047.88;;;23.52;32.30
16100;BME280;8154;50.830;12.082;2022-12-07T05:14:44;99048.72;;;23.52;32.37
16100;BME280;8154;50.830;12.082;2022-12-07T05:17:28;99055.25;;;23.56;32.30
16100;BME280;8154;50.830;12.082;2022-12-07T05:20:12;99047.88;;;23.52;32.27
16100;BME280;8154;50.830;12.082;2022-12-07T05:22:56;99043.59;;;23.51;32.32
16100;BME280;8154;50.830;12.082;2022-12-07T05:25:42;99040.50;;;23.47;32.14
16100;BME280;8154;50.830;12.082;2022-12-07T05:28:26;99049.13;;;23.49;32.29
16100;BME280;8154;50.830;12.082;2022-12-07T05:31:11;99039.28;;;23.43;32.48
16100;BME280;8154;50.830;12.082;2022-12-07T05:33:55;99042.16;;;23.42;32.32
16100;BME280;8154;50.830;12.082;2022-12-07T05:36:39;99039.66;;;23.47;32.32
16100;BME280;8154;50.830;12.082;2022-12-07T05:39:24;99029.44;;;23.57;32.06
16100;BME280;8154;50.830;12.082;2022-12-07T05:42:10;99037.44;;;23.70;31.96
16100;BME280;8154;50.830;12.082;2022-12-07T05:44:57;99034.34;;;23.60;32.19
16100;BME280;8154;50.830;12.082;2022-12-07T05:47:41;99036.59;;;23.56;32.29
16100;BME280;8154;50.830;12.082;2022-12-07T05:50:26;99032.09;;;23.50;32.28
16100;BME280;8154;50.830;12.082;2022-12-07T05:53:11;99042.16;;;23.48;32.44
16100;BME280;8154;50.830;12.082;2022-12-07T05:55:55;99042.97;;;23.49;32.45
16100;BME280;8154;50.830;12.082;2022-12-07T05:58:40;99040.09;;;23.50;32.20
16100;BME280;8154;50.830;12.082;2022-12-07T06:01:42;99036.41;;;23.45;32.35
16100;BME280;8154;50.830;12.082;2022-12-07T06:04:29;99031.88;;;23.45;32.39
16100;BME280;8154;50.830;12.082;2022-12-07T06:07:15;99040.09;;;23.50;32.39
16100;BME280;8154;50.830;12.082;2022-12-07T06:09:59;99034.34;;;23.53;32.37
16100;BME280;8154;50.830;12.082;2022-12-07T06:12:43;99035.16;;;23.54;32.32
16100;BME280;8154;50.830;12.082;2022-12-07T06:15:29;99033.13;;;23.56;32.36
16100;BME280;8154;50.830;12.082;2022-12-07T06:18:14;99028.00;;;23.54;32.48
16100;BME280;8154;50.830;12.082;2022-12-07T06:20:59;99028.41;;;23.51;32.12
16100;BME280;8154;50.830;12.082;2022-12-07T06:23:43;99034.56;;;23.52;32.22
16100;BME280;8154;50.830;12.082;2022-12-07T06:26:27;99035.16;;;23.47;32.42
16100;BME280;8154;50.830;12.082;2022-12-07T06:29:12;99034.75;;;23.44;32.38
16100;BME280;8154;50.830;12.082;2022-12-07T06:31:57;99033.75;;;23.45;32.57
16100;BME280;8154;50.830;12.082;2022-12-07T06:34:41;99034.53;;;23.45;32.23
16100;BME280;8154;50.830;12.082;2022-12-07T06:37:26;99034.16;;;23.48;32.24
16100;BME280;8154;50.830;12.082;2022-12-07T06:40:10;99033.09;;;23.69;32.06
16100;BME280;8154;50.830;12.082;2022-12-07T06:42:54;99038.44;;;23.69;32.07
16100;BME280;8154;50.830;12.082;2022-12-07T06:45:38;99041.72;;;23.58;32.21
16100;BME280;8154;50.830;12.082;2022-12-07T06:48:22;99037.00;;;23.53;32.37
16100;BME280;8154;50.830;12.082;2022-12-07T06:51:08;99033.75;;;23.51;32.20
16100;BME280;8154;50.830;12.082;2022-12-07T06:53:52;99047.09;;;23.51;32.32
16100;BME280;8154;50.830;12.082;2022-12-07T06:56:36;99054.47;;;23.49;32.42
16100;BME280;8154;50.830;12.082;2022-12-07T06:59:21;99057.53;;;23.59;32.20
16100;BME280;8154;50.830;12.082;2022-12-07T07:02:05;99057.13;;;23.69;31.89
16100;BME280;8154;50.830;12.082;2022-12-07T07:04:49;99065.53;;;23.59;32.24
16100;BME280;8154;50.830;12.082;2022-12-07T07:07:33;99067.19;;;23.54;32.31
16100;BME280;8154;50.830;12.082;2022-12-07T07:10:19;99069.03;;;23.53;32.27
16100;BME280;8154;50.830;12.082;2022-12-07T07:13:03;99065.75;;;23.51;32.39
16100;BME280;8154;50.830;12.082;2022-12-07T07:15:47;99074.34;;;23.53;32.24
16100;BME280;8154;50.830;12.082;2022-12-07T07:18:33;99073.75;;;23.51;32.22
16100;BME280;8154;50.830;12.082;2022-12-07T07:21:17;99071.09;;;23.51;32.05
16100;BME280;8154;50.830;12.082;2022-12-07T07:24:01;99077.22;;;23.52;32.14
16100;BME280;8154;50.830;12.082;2022-12-07T07:26:45;99080.50;;;23.47;32.36
16100;BME280;8154;50.830;12.082;2022-12-07T07:29:29;99081.56;;;23.53;32.05
16100;BME280;8154;50.830;12.082;2022-12-07T07:32:13;99080.31;;;23.68;31.96
16100;BME280;8154;50.830;12.082;2022-12-07T07:34:57;99089.94;;;23.56;32.07
16100;BME280;8154;50.830;12.082;2022-12-07T07:37:42;99078.25;;;23.51;32.41
16100;BME280;8154;50.830;12.082;2022-12-07T07:40:27;99088.53;;;23.54;32.20
16100;BME280;8154;50.830;12.082;2022-12-07T07:43:12;99083.81;;;23.56;32.15
16100;BME280;8154;50.830;12.082;2022-12-07T07:45:57;99077.84;;;23.54;32.28
16100;BME280;8154;50.830;12.082;2022-12-07T07:48:41;99071.69;;;23.53;32.27
16100;BME280;8154;50.830;12.082;2022-12-07T07:51:25;99071.69;;;23.47;32.30
16100;BME280;8154;50.830;12.082;2022-12-07T07:54:09;99078.47;;;23.56;31.94
16100;BME280;8154;50.830;12.082;2022-12-07T07:56:53;99078.66;;;23.67;32.04
16100;BME280;8154;50.830;12.082;2022-12-07T07:59:38;99076.00;;;23.61;31.99
16100;BME280;8154;50.830;12.082;2022-12-07T08:02:23;99079.69;;;23.60;32.16
16100;BME280;8154;50.830;12.082;2022-12-07T08:05:07;99088.53;;;23.54;32.16
16100;BME280;8154;50.830;12.082;2022-12-07T08:07:52;99085.44;;;23.50;32.41
16100;BME280;8154;50.830;12.082;2022-12-07T08:10:36;99081.56;;;23.53;32.22
16100;BME280;8154;50.830;12.082;2022-12-07T08:13:21;99094.88;;;23.59;32.17
16100;BME280;8154;50.830;12.082;2022-12-07T08:16:07;99086.66;;;23.61;31.85
16100;BME280;8154;50.830;12.082;2022-12-07T08:18:52;99095.06;;;23.58;32.32
16100;BME280;8154;50.830;12.082;2022-12-07T08:21:37;99086.28;;;23.57;31.94
16100;BME280;8154;50.830;12.082;2022-12-07T08:24:23;99090.97;;;23.55;32.01
16100;BME280;8154;50.830;12.082;2022-12-07T08:27:08;99085.25;;;23.58;32.00
16100;BME280;8154;50.830;12.082;2022-12-07T08:29:53;99090.16;;;23.55;32.26
16100;BME280;8154;50.830;12.082;2022-12-07T08:32:37;99088.13;;;23.57;32.29
16100;BME280;8154;50.830;12.082;2022-12-07T08:35:21;99081.53;;;23.59;32.00
16100;BME280;8154;50.830;12.082;2022-12-07T08:38:05;99085.25;;;23.65;31.98
16100;BME280;8154;50.830;12.082;2022-12-07T08:40:57;99080.53;;;23.67;32.10
16100;BME280;8154;50.830;12.082;2022-12-07T08:43:41;99080.50;;;23.73;31.81
16100;BME280;8154;50.830;12.082;2022-12-07T08:46:41;99072.31;;;23.62;32.19
16100;BME280;8154;50.830;12.082;2022-12-07T08:49:42;99066.16;;;23.55;32.23
16100;BME280;8154;50.830;12.082;2022-12-07T08:52:28;99078.69;;;23.54;32.27
16100;BME280;8154;50.830;12.082;2022-12-07T08:55:13;99075.38;;;23.52;32.21
16100;BME280;8154;50.830;12.082;2022-12-07T08:57:59;99065.13;;;23.49;32.29
16100;BME280;8154;50.830;12.082;2022-12-07T09:00:43;99069.22;;;23.58;32.20
16100;BME280;8154;50.830;12.082;2022-12-07T09:03:27;99070.66;;;23.61;31.96
16100;BME280;8154;50.830;12.082;2022-12-07T09:06:11;99063.06;;;23.64;32.01
16100;BME280;8154;50.830;12.082;2022-12-07T09:08:58;99062.25;;;23.70;32.02
16100;BME280;8154;50.830;12.082;2022-12-07T09:11:44;99065.13;;;23.75;31.95
16100;BME280;8154;50.830;12.082;2022-12-07T09:14:28;99069.25;;;23.71;31.84
16100;BME280;8154;50.830;12.082;2022-12-07T09:17:12;99073.16;;;23.56;32.28
16100;BME280;8154;50.830;12.082;2022-12-07T09:19:57;99069.22;;;23.58;32.24
16100;BME280;8154;50.830;12.082;2022-12-07T09:22:41;99069.66;;;23.62;32.06
16100;BME280;8154;50.830;12.082;2022-12-07T09:25:26;99071.69;;;23.60;32.20
16100;BME280;8154;50.830;12.082;2022-12-07T09:28:10;99076.41;;;23.64;32.02
16100;BME280;8154;50.830;12.082;2022-12-07T09:30:55;99068.81;;;23.68;32.11
16100;BME280;8154;50.830;12.082;2022-12-07T09:33:39;99070.44;;;23.69;31.95
16100;BME280;8154;50.830;12.082;2022-12-07T09:36:23;99079.91;;;23.71;32.07
16100;BME280;8154;50.830;12.082;2022-12-07T09:39:08;99072.72;;;23.72;32.10
16100;BME280;8154;50.830;12.082;2022-12-07T09:41:52;99068.81;;;23.61;32.20
16100;BME280;8154;50.830;12.082;2022-12-07T09:44:36;99065.94;;;23.56;32.13
16100;BME280;8154;50.830;12.082;2022-12-07T09:47:24;99073.31;;;23.67;31.91
16100;BME280;8154;50.830;12.082;2022-12-07T09:50:14;99075.19;;;23.67;31.94
16100;BME280;8154;50.830;12.082;2022-12-07T09:53:19;99064.13;;;23.70;31.87
16100;BME280;8154;50.830;12.082;2022-12-07T09:56:04;99064.28;;;23.75;31.92
16100;BME280;8154;50.830;12.082;2022-12-07T09:58:54;99050.94;;;23.75;31.83
16100;BME280;8154;50.830;12.082;2022-12-07T10:01:42;99068.81;;;23.68;31.92
16100;BME280;8154;50.830;12.082;2022-12-07T10:04:27;99065.53;;;23.66;32.10
16100;BME280;8154;50.830;12.082;2022-12-07T10:07:13;99060.41;;;23.71;31.99
16100;BME280;8154;50.830;12.082;2022-12-07T10:09:58;99049.09;;;23.69;32.12
16100;BME280;8154;50.830;12.082;2022-12-07T10:13:14;99045.63;;;23.75;31.78
16100;BME280;8154;50.830;12.082;2022-12-07T10:15:58;99045.03;;;23.73;32.04
16100;BME280;8154;50.830;12.082;2022-12-07T10:18:42;99044.81;;;23.74;31.92
16100;BME280;8154;50.830;12.082;2022-12-07T10:21:27;99034.13;;;23.74;32.00
16100;BME280;8154;50.830;12.082;2022-12-07T10:26:56;99038.84;;;23.66;31.80
16100;BME280;8154;50.830;12.082;2022-12-07T10:29:50;99033.94;;;23.56;32.19
16100;BME280;8154;50.830;12.082;2022-12-07T10:32:36;99042.13;;;23.55;32.23
16100;BME280;8154;50.830;12.082;2022-12-07T10:35:28;99040.91;;;23.57;32.04
16100;BME280;8154;50.830;12.082;2022-12-07T10:38:16;99031.88;;;23.65;32.19
16100;BME280;8154;50.830;12.082;2022-12-07T10:41:06;99036.19;;;23.66;31.85
16100;BME280;8154;50.830;12.082;2022-12-07T10:43:54;99036.19;;;23.66;32.14
16100;BME280;8154;50.830;12.082;2022-12-07T10:53:20;99029.41;;;23.76;31.69
16100;BME280;8154;50.830;12.082;2022-12-07T10:59:19;99024.28;;;23.49;32.30
16100;BME280;8154;50.830;12.082;2022-12-07T11:05:56;99024.09;;;23.63;31.94
16100;BME280;8154;50.830;12.082;2022-12-07T11:08:56;99023.69;;;23.66;32.16
16100;BME280;8154;50.830;12.082;2022-12-07T11:15:26;99016.06;;;23.76;32.00
16100;BME280;8154;50.830;12.082;2022-12-07T11:18:34;99021.19;;;23.78;31.89
16100;BME280;8154;50.830;12.082;2022-12-07T11:21:31;99019.56;;;23.77;31.66
16100;BME280;8154;50.830;12.082;2022-12-07T11:24:27;99023.06;;;23.71;31.75
16100;BME280;8154;50.830;12.082;2022-12-07T11:30:47;99021.41;;;23.70;32.15
16100;BME280;8154;50.830;12.082;2022-12-07T11:42:14;99002.13;;;23.68;32.09
16100;BME280;8154;50.830;12.082;2022-12-07T11:48:01;99001.50;;;23.79;31.78
16100;BME280;8154;50.830;12.082;2022-12-07T11:50:50;99005.16;;;23.84;31.65
16100;BME280;8154;50.830;12.082;2022-12-07T11:53:39;99005.16;;;23.84;31.81
16100;BME280;8154;50.830;12.082;2022-12-07T11:56:27;98995.13;;;23.80;31.81
16100;BME280;8154;50.830;12.082;2022-12-07T11:59:38;98994.13;;;23.68;31.80
16100;BME280;8154;50.830;12.082;2022-12-07T12:02:32;98989.19;;;23.71;31.82
16100;BME280;8154;50.830;12.082;2022-12-07T12:05:22;98986.91;;;23.75;32.01
16100;BME280;8154;50.830;12.082;2022-12-07T12:08:24;98978.91;;;23.81;31.69
16100;BME280;8154;50.830;12.082;2022-12-07T12:14:41;98989.19;;;23.65;32.02
16100;BME280;8154;50.830;12.082;2022-12-07T12:17:53;98974.78;;;23.85;31.67
16100;BME280;8154;50.830;12.082;2022-12-07T12:20:50;98970.25;;;23.92;31.42
16100;BME280;8154;50.830;12.082;2022-12-07T12:23:49;98975.19;;;24.02;31.59
16100;BME280;8154;50.830;12.082;2022-12-07T12:26:40;98974.78;;;23.98;31.36
16100;BME280;8154;50.830;12.082;2022-12-07T12:29:39;98965.31;;;24.02;31.31
16100;BME280;8154;50.830;12.082;2022-12-07T12:32:38;98977.44;;;23.98;31.43
16100;BME280;8154;50.830;12.082;2022-12-07T12:35:35;98976.59;;;24.04;31.27
16100;BME280;8154;50.830;12.082;2022-12-07T12:38:32;98972.72;;;24.00;31.77
16100;BME280;8154;50.830;12.082;2022-12-07T12:50:35;98973.16;;;23.78;31.98
16100;BME280;8154;50.830;12.082;2022-12-07T12:53:26;98949.75;;;23.80;31.79
16100;BME280;8154;50.830;12.082;2022-12-07T12:56:23;98960.41;;;23.86;31.64
16100;BME280;8154;50.830;12.082;2022-12-07T12:59:30;98961.03;;;23.88;31.65
16100;BME280;8154;50.830;12.082;2022-12-07T13:02:30;98959.16;;;23.89;31.48
16100;BME280;8154;50.830;12.082;2022-12-07T13:05:22;98959.78;;;23.91;31.65
16100;BME280;8154;50.830;12.082;2022-12-07T13:08:18;98969.47;;;23.72;31.71
16100;BME280;8154;50.830;12.082;2022-12-07T13:24:00;98962.47;;;23.78;32.03
16100;BME280;8154;50.830;12.082;2022-12-07T13:26:48;98958.78;;;23.79;31.82
16100;BME280;8154;50.830;12.082;2022-12-07T13:29:36;98947.69;;;23.82;31.67
16100;BME280;8154;50.830;12.082;2022-12-07T13:32:27;98955.53;;;23.70;32.00
16100;BME280;8154;50.830;12.082;2022-12-07T13:35:33;98954.09;;;23.68;31.79
16100;BME280;8154;50.830;12.082;2022-12-07T13:38:33;98954.09;;;23.61;31.80
16100;BME280;8154;50.830;12.082;2022-12-07T13:41:21;98954.72;;;23.57;32.00
16100;BME280;8154;50.830;12.082;2022-12-07T13:44:14;98955.16;;;23.60;32.09
16100;BME280;8154;50.830;12.082;2022-12-07T13:50:02;98951.22;;;23.76;31.79
16100;BME280;8154;50.830;12.082;2022-12-07T13:53:11;98964.16;;;23.72;31.92
16100;BME280;8154;50.830;12.082;2022-12-07T13:55:57;98970.47;;;23.78;31.61
16100;BME280;8154;50.830;12.082;2022-12-07T13:58:42;98977.06;;;23.75;31.53
16100;BME280;8154;50.830;12.082;2022-12-07T14:01:30;98973.81;;;23.67;31.78
16100;BME280;8154;50.830;12.082;2022-12-07T14:04:32;98970.72;;;23.63;32.03
16100;BME280;8154;50.830;12.082;2022-12-07T14:07:24;98961.06;;;23.62;32.13
16100;BME280;8154;50.830;12.082;2022-12-07T14:16:29;98959.84;;;23.65;31.79
16100;BME280;8154;50.830;12.082;2022-12-07T14:22:33;98955.94;;;23.61;31.86
16100;BME280;8154;50.830;12.082;2022-12-07T14:25:27;98960.28;;;23.62;32.01
16100;BME280;8154;50.830;12.082;2022-12-07T14:28:29;98962.94;;;23.62;31.82
16100;BME280;8154;50.830;12.082;2022-12-07T14:31:18;98963.34;;;23.59;31.83
16100;BME280;8154;50.830;12.082;2022-12-07T14:34:05;98953.28;;;23.61;31.78
16100;BME280;8154;50.830;12.082;2022-12-07T14:36:50;98954.72;;;23.57;32.06
16100;BME280;8154;50.830;12.082;2022-12-07T14:39:34;98961.31;;;23.54;32.04
16100;BME280;8154;50.830;12.082;2022-12-07T14:42:18;98958.44;;;23.56;31.94
16100;BME280;8154;50.830;12.082;2022-12-07T14:45:03;98952.47;;;23.60;32.20
16100;BME280;8154;50.830;12.082;2022-12-07T14:47:48;98944.91;;;23.57;31.88
16100;BME280;8154;50.830;12.082;2022-12-07T14:50:44;98951.06;;;23.51;32.13
16100;BME280;8154;50.830;12.082;2022-12-07T14:53:41;98949.19;;;23.52;32.21
16100;BME280;8154;50.830;12.082;2022-12-07T14:56:27;98956.41;;;23.51;31.98
16100;BME280;8154;50.830;12.082;2022-12-07T14:59:12;98954.75;;;23.50;31.96
16100;BME280;8154;50.830;12.082;2022-12-07T15:01:56;98960.28;;;23.49;31.94
16100;BME280;8154;50.830;12.082;2022-12-07T15:04:41;98959.44;;;23.55;32.00
16100;BME280;8154;50.830;12.082;2022-12-07T15:07:25;98958.03;;;23.46;31.96
16100;BME280;8154;50.830;12.082;2022-12-07T15:10:31;98958.03;;;23.46;32.29
16100;BME280;8154;50.830;12.082;2022-12-07T15:13:16;98958.22;;;23.51;31.96
16100;BME280;8154;50.830;12.082;2022-12-07T15:16:19;98953.94;;;23.50;32.03
16100;BME280;8154;50.830;12.082;2022-12-07T15:19:05;98952.69;;;23.52;32.06
16100;BME280;8154;50.830;12.082;2022-12-07T15:21:50;98952.91;;;23.57;32.02
16100;BME280;8154;50.830;12.082;2022-12-07T15:24:34;98964.78;;;23.55;32.17
16100;BME280;8154;50.830;12.082;2022-12-07T15:27:18;98956.19;;;23.53;31.88
16100;BME280;8154;50.830;12.082;2022-12-07T15:30:03;98956.19;;;23.53;31.83
16100;BME280;8154;50.830;12.082;2022-12-07T15:32:52;98954.53;;;23.52;32.11
16100;BME280;8154;50.830;12.082;2022-12-07T15:35:40;98956.19;;;23.53;31.82
16100;BME280;8154;50.830;12.082;2022-12-07T15:38:25;98948.59;;;23.50;31.96
16100;BME280;8154;50.830;12.082;2022-12-07T15:41:11;98959.44;;;23.55;31.90
16100;BME280;8154;50.830;12.082;2022-12-07T15:43:55;98957.19;;;23.58;31.82
16100;BME280;8154;50.830;12.082;2022-12-07T15:46:58;98961.06;;;23.75;31.33
16100;BME280;8154;50.830;12.082;2022-12-07T15:49:43;98967.03;;;23.71;31.63
16100;BME280;8154;50.830;12.082;2022-12-07T15:52:27;98957.19;;;23.65;31.88
16100;BME280;8154;50.830;12.082;2022-12-07T15:55:11;98961.31;;;23.54;31.75
16100;BME280;8154;50.830;12.082;2022-12-07T15:57:55;98959.66;;;23.47;32.07
16100;BME280;8154;50.830;12.082;2022-12-07T16:00:40;98959.66;;;23.47;32.08
16100;BME280;8154;50.830;12.082;2022-12-07T16:03:27;98957.81;;;23.47;32.03
16100;BME280;8154;50.830;12.082;2022-12-07T16:06:11;98966.41;;;23.62;31.82
16100;BME280;8154;50.830;12.082;2022-12-07T16:08:56;98963.72;;;23.69;31.80
16100;BME280;8154;50.830;12.082;2022-12-07T16:11:41;98963.78;;;23.56;31.67
16100;BME280;8154;50.830;12.082;2022-12-07T16:14:25;98960.47;;;23.54;31.93
16100;BME280;8154;50.830;12.082;2022-12-07T16:17:10;98957.19;;;23.52;31.87
16100;BME280;8154;50.830;12.082;2022-12-07T16:19:53;98963.16;;;23.54;32.00
16100;BME280;8154;50.830;12.082;2022-12-07T16:22:38;98954.53;;;23.52;31.77
16100;BME280;8154;50.830;12.082;2022-12-07T16:25:22;98962.31;;;23.60;31.85
16100;BME280;8154;50.830;12.082;2022-12-07T16:28:07;98961.69;;;23.71;31.70
16100;BME280;8154;50.830;12.082;2022-12-07T16:31:00;98967.22;;;23.63;31.52
16100;BME280;8154;50.830;12.082;2022-12-07T16:33:44;98963.34;;;23.46;31.88
16100;BME280;8154;50.830;12.082;2022-12-07T16:36:29;98963.16;;;23.41;32.28
16100;BME280;8154;50.830;12.082;2022-12-07T16:39:14;98974.03;;;23.46;32.02
16100;BME280;8154;50.830;12.082;2022-12-07T16:41:58;98961.94;;;23.50;32.03